Terminal Aerodrome Forecast
Issued by NWS

Current Version | Previous Version | Text Only | Print | Product List | Glossary On
Versions: 1 2 3 4 5 6 7 8 9 10 11 12 13 14 15 16 17 18 19 20 21 22 23 24 25 26 27
608
FTUS41 KOKX 221139
TAFGON
TAF
KGON 221139Z 2212/2312 VRB03KT 5SM -DZ BR SCT025 OVC035
     FM221400 07005KT P6SM -DZ SCT015 OVC025
     FM221700 07005KT 3SM -DZRA BR SCT007 OVC015
     FM222000 07005KT 3SM -DZRA BR BKN007
     FM230200 07005KT 5SM BR OVC007
     FM230800 15009KT 6SM -SHRA BR SCT008 OVC015=

USA.gov is the U.S. government's official web portal to all federal, state and local government web resources and services.